Time,TemperatureF,DewpointF,PressureIn,WindDirection,WindDirectionDegrees,WindSpeedMPH,WindSpeedGustMPH,Humidity,HourlyPrecipIn,Conditions,Clouds,dailyrainin,SolarRadiationWatts/m^2,SoftwareType,DateUTC
2014-04-20 00:02:00,39.0,29.0,-100.00,North,355,4.0,8.0,66,0.00,,,0.00,1.000000,,2014-04-20 08:02:00,
2014-04-20 00:12:00,39.0,29.0,-100.00,North,355,4.0,8.0,66,0.00,,,0.00,1.000000,,2014-04-20 08:12:00,
2014-04-20 00:21:00,39.0,29.0,-100.00,North,3,5.0,8.0,67,0.00,,,0.00,0.000000,,2014-04-20 08:21:00,
2014-04-20 00:52:00,39.0,29.0,-100.00,North,3,5.0,8.0,67,0.00,,,0.00,0.000000,,2014-04-20 08:52:00,
2014-04-20 01:01:00,39.0,29.0,-100.00,North,3,5.0,8.0,67,0.00,,,0.00,0.000000,,2014-04-20 09:01:00,
2014-04-20 01:11:00,39.0,29.0,-100.00,North,3,5.0,8.0,67,0.00,,,0.00,0.000000,,2014-04-20 09:11:00,
2014-04-20 01:21:00,37.0,28.0,-100.00,North,5,5.0,8.0,69,0.00,,,0.00,0.000000,,2014-04-20 09:21:00,
2014-04-20 01:54:00,37.0,28.0,-100.00,North,5,5.0,8.0,69,0.00,,,0.00,0.000000,,2014-04-20 09:54:00,
2014-04-20 02:03:00,37.0,28.0,-100.00,North,5,5.0,8.0,69,0.00,,,0.00,0.000000,,2014-04-20 10:03:00,
2014-04-20 02:13:00,37.0,28.0,-100.00,North,5,5.0,8.0,69,0.00,,,0.00,0.000000,,2014-04-20 10:13:00,
2014-04-20 02:21:00,35.0,28.0,-100.00,North,356,4.0,7.0,74,0.00,,,0.00,0.000000,,2014-04-20 10:21:00,
2014-04-20 02:53:00,35.0,28.0,-100.00,North,356,4.0,7.0,74,0.00,,,0.00,0.000000,,2014-04-20 10:53:00,
2014-04-20 03:02:00,35.0,28.0,-100.00,North,356,4.0,7.0,74,0.00,,,0.00,0.000000,,2014-04-20 11:02:00,
2014-04-20 03:12:00,35.0,28.0,-100.00,North,356,4.0,7.0,74,0.00,,,0.00,0.000000,,2014-04-20 11:12:00,
2014-04-20 03:21:00,35.0,28.0,-100.00,North,357,5.0,7.0,74,0.00,,,0.00,0.000000,,2014-04-20 11:21:00,
2014-04-20 03:52:00,35.0,28.0,-100.00,North,357,5.0,7.0,74,0.00,,,0.00,0.000000,,2014-04-20 11:52:00,
2014-04-20 04:01:00,35.0,28.0,-100.00,North,357,5.0,7.0,74,0.00,,,0.00,0.000000,,2014-04-20 12:01:00,
2014-04-20 04:12:00,35.0,28.0,-100.00,North,357,5.0,7.0,74,0.00,,,0.00,0.000000,,2014-04-20 12:12:00,
2014-04-20 04:21:00,34.0,27.0,-100.00,North,355,4.0,7.0,75,0.00,,,0.00,0.000000,,2014-04-20 12:21:00,
2014-04-20 04:53:00,34.0,27.0,-100.00,North,355,4.0,7.0,75,0.00,,,0.00,0.000000,,2014-04-20 12:53:00,
2014-04-20 05:02:00,34.0,27.0,-100.00,North,355,4.0,7.0,75,0.00,,,0.00,0.000000,,2014-04-20 13:02:00,
2014-04-20 05:12:00,34.0,27.0,-100.00,North,355,4.0,7.0,75,0.00,,,0.00,0.000000,,2014-04-20 13:12:00,
2014-04-20 05:21:00,33.0,27.0,-100.00,North,359,5.0,7.0,77,0.00,,,0.00,0.000000,,2014-04-20 13:21:00,
2014-04-20 05:52:00,33.0,27.0,-100.00,North,359,5.0,7.0,77,0.00,,,0.00,0.000000,,2014-04-20 13:52:00,
2014-04-20 06:02:00,33.0,27.0,-100.00,North,359,5.0,7.0,77,0.00,,,0.00,0.000000,,2014-04-20 14:02:00,
2014-04-20 06:11:00,33.0,27.0,-100.00,North,359,5.0,7.0,77,0.00,,,0.00,0.000000,,2014-04-20 14:11:00,
2014-04-20 06:21:00,31.0,26.0,-100.00,North,3,4.0,8.0,80,0.00,,,0.00,0.000000,,2014-04-20 14:21:00,
2014-04-20 06:52:00,31.0,26.0,-100.00,North,3,4.0,8.0,80,0.00,,,0.00,0.000000,,2014-04-20 14:52:00,
2014-04-20 07:01:00,31.0,26.0,-100.00,North,3,4.0,8.0,80,0.00,,,0.00,0.000000,,2014-04-20 15:01:00,
2014-04-20 07:11:00,31.0,26.0,-100.00,North,3,4.0,8.0,80,0.00,,,0.00,0.000000,,2014-04-20 15:11:00,
2014-04-20 07:21:00,31.0,26.0,-100.00,NNE,13,4.0,6.0,80,0.00,,,0.00,20.000000,,2014-04-20 15:21:00,
2014-04-20 07:54:00,31.0,26.0,-100.00,NNE,13,4.0,6.0,80,0.00,,,0.00,20.000000,,2014-04-20 15:54:00,
2014-04-20 08:04:00,31.0,26.0,-100.00,NNE,13,4.0,6.0,80,0.00,,,0.00,20.000000,,2014-04-20 16:04:00,
2014-04-20 08:13:00,31.0,26.0,-100.00,NNE,13,4.0,6.0,80,0.00,,,0.00,20.000000,,2014-04-20 16:13:00,
2014-04-20 08:21:00,34.0,26.0,-100.00,NNE,17,4.0,6.0,72,0.00,,,0.00,113.000000,,2014-04-20 16:21:00,
2014-04-20 08:53:00,34.0,26.0,-100.00,NNE,17,4.0,6.0,72,0.00,,,0.00,113.000000,,2014-04-20 16:53:00,
2014-04-20 09:02:00,34.0,26.0,-100.00,NNE,17,4.0,6.0,72,0.00,,,0.00,113.000000,,2014-04-20 17:02:00,
2014-04-20 09:12:00,34.0,26.0,-100.00,NNE,17,4.0,6.0,72,0.00,,,0.00,113.000000,,2014-04-20 17:12:00,
2014-04-20 09:21:00,38.0,27.0,-100.00,North,11,5.0,7.0,64,0.00,,,0.00,272.000000,,2014-04-20 17:21:00,
2014-04-20 09:53:00,38.0,27.0,-100.00,North,11,5.0,7.0,64,0.00,,,0.00,272.000000,,2014-04-20 17:53:00,
2014-04-20 10:01:00,38.0,27.0,-100.00,North,11,5.0,7.0,64,0.00,,,0.00,272.000000,,2014-04-20 18:01:00,
2014-04-20 10:12:00,38.0,27.0,-100.00,North,11,5.0,7.0,64,0.00,,,0.00,272.000000,,2014-04-20 18:12:00,
2014-04-20 10:21:00,40.0,27.0,-100.00,North,7,5.0,9.0,59,0.00,,,0.00,381.000000,,2014-04-20 18:21:00,
2014-04-20 10:52:00,40.0,27.0,-100.00,North,7,5.0,9.0,59,0.00,,,0.00,381.000000,,2014-04-20 18:52:00,
2014-04-20 11:02:00,40.0,27.0,-100.00,North,7,5.0,9.0,59,0.00,,,0.00,381.000000,,2014-04-20 19:02:00,
2014-04-20 11:12:00,40.0,27.0,-100.00,North,7,5.0,9.0,59,0.00,,,0.00,381.000000,,2014-04-20 19:12:00,
2014-04-20 11:21:00,42.0,27.0,-100.00,North,3,6.0,9.0,56,0.00,,,0.00,507.000000,,2014-04-20 19:21:00,
2014-04-20 11:52:00,42.0,27.0,-100.00,North,3,6.0,9.0,56,0.00,,,0.00,507.000000,,2014-04-20 19:52:00,
2014-04-20 12:02:00,42.0,27.0,-100.00,North,3,6.0,9.0,56,0.00,,,0.00,507.000000,,2014-04-20 20:02:00,
2014-04-20 12:12:00,42.0,27.0,-100.00,North,3,6.0,9.0,56,0.00,,,0.00,507.000000,,2014-04-20 20:12:00,
2014-04-20 12:21:00,44.0,28.0,-100.00,North,7,6.0,10.0,52,0.00,,,0.00,611.000000,,2014-04-20 20:21:00,
2014-04-20 12:52:00,44.0,28.0,-100.00,North,7,6.0,10.0,52,0.00,,,0.00,611.000000,,2014-04-20 20:52:00,
2014-04-20 13:02:00,44.0,28.0,-100.00,North,7,6.0,10.0,52,0.00,,,0.00,611.000000,,2014-04-20 21:02:00,
2014-04-20 13:12:00,44.0,28.0,-100.00,North,7,6.0,10.0,52,0.00,,,0.00,611.000000,,2014-04-20 21:12:00,
2014-04-20 13:21:00,45.0,27.0,-100.00,North,9,7.0,10.0,48,0.00,,,0.00,688.000000,,2014-04-20 21:21:00,
2014-04-20 13:53:00,45.0,27.0,-100.00,North,9,7.0,10.0,48,0.00,,,0.00,688.000000,,2014-04-20 21:53:00,
2014-04-20 14:03:00,45.0,27.0,-100.00,North,9,7.0,10.0,48,0.00,,,0.00,688.000000,,2014-04-20 22:03:00,
2014-04-20 14:13:00,45.0,27.0,-100.00,North,9,7.0,10.0,48,0.00,,,0.00,688.000000,,2014-04-20 22:13:00,
2014-04-20 14:21:00,46.0,26.0,-100.00,NNE,16,7.0,11.0,46,0.00,,,0.00,707.000000,,2014-04-20 22:21:00,
2014-04-20 14:53:00,46.0,26.0,-100.00,NNE,16,7.0,11.0,46,0.00,,,0.00,707.000000,,2014-04-20 22:53:00,
2014-04-20 15:03:00,46.0,26.0,-100.00,NNE,16,7.0,11.0,46,0.00,,,0.00,707.000000,,2014-04-20 23:03:00,
2014-04-20 15:12:00,46.0,26.0,-100.00,NNE,16,7.0,11.0,46,0.00,,,0.00,707.000000,,2014-04-20 23:12:00,
2014-04-20 15:21:00,47.0,26.0,-100.00,NNE,18,7.0,10.0,44,0.00,,,0.00,686.000000,,2014-04-20 23:21:00,
2014-04-20 15:52:00,47.0,26.0,-100.00,NNE,18,7.0,10.0,44,0.00,,,0.00,686.000000,,2014-04-20 23:52:00,
2014-04-20 16:01:00,47.0,26.0,-100.00,NNE,18,7.0,10.0,44,0.00,,,0.00,686.000000,,2014-04-21 00:01:00,
2014-04-20 16:12:00,47.0,26.0,-100.00,NNE,18,7.0,10.0,44,0.00,,,0.00,686.000000,,2014-04-21 00:12:00,
2014-04-20 16:21:00,47.0,26.0,-100.00,NNE,25,8.0,11.0,43,0.00,,,0.00,624.000000,,2014-04-21 00:21:00,
2014-04-20 16:52:00,47.0,26.0,-100.00,NNE,25,8.0,11.0,43,0.00,,,0.00,624.000000,,2014-04-21 00:52:00,
2014-04-20 17:01:00,47.0,26.0,-100.00,NNE,25,8.0,11.0,43,0.00,,,0.00,624.000000,,2014-04-21 01:01:00,
2014-04-20 17:11:00,47.0,26.0,-100.00,NNE,25,8.0,11.0,43,0.00,,,0.00,624.000000,,2014-04-21 01:11:00,
2014-04-20 17:21:00,48.0,26.0,-100.00,NNE,21,8.0,12.0,42,0.00,,,0.00,531.000000,,2014-04-21 01:21:00,
2014-04-20 17:52:00,48.0,26.0,-100.00,NNE,21,8.0,12.0,42,0.00,,,0.00,531.000000,,2014-04-21 01:52:00,
2014-04-20 18:02:00,48.0,26.0,-100.00,NNE,21,8.0,12.0,42,0.00,,,0.00,531.000000,,2014-04-21 02:02:00,
2014-04-20 18:11:00,48.0,26.0,-100.00,NNE,21,8.0,12.0,42,0.00,,,0.00,531.000000,,2014-04-21 02:11:00,
2014-04-20 18:21:00,48.0,26.0,-100.00,NNE,30,8.0,12.0,42,0.00,,,0.00,414.000000,,2014-04-21 02:21:00,
2014-04-20 18:52:00,48.0,26.0,-100.00,NNE,30,8.0,12.0,42,0.00,,,0.00,414.000000,,2014-04-21 02:52:00,
2014-04-20 19:02:00,48.0,26.0,-100.00,NNE,30,8.0,12.0,42,0.00,,,0.00,414.000000,,2014-04-21 03:02:00,
2014-04-20 19:11:00,48.0,26.0,-100.00,NNE,30,8.0,12.0,42,0.00,,,0.00,414.000000,,2014-04-21 03:11:00,
2014-04-20 19:21:00,47.0,26.0,-100.00,North,10,6.0,10.0,44,0.00,,,0.00,286.000000,,2014-04-21 03:21:00,
2014-04-20 19:54:00,47.0,26.0,-100.00,North,10,6.0,10.0,44,0.00,,,0.00,286.000000,,2014-04-21 03:54:00,
2014-04-20 20:03:00,47.0,26.0,-100.00,North,10,6.0,10.0,44,0.00,,,0.00,286.000000,,2014-04-21 04:03:00,
2014-04-20 20:13:00,47.0,26.0,-100.00,North,10,6.0,10.0,44,0.00,,,0.00,286.000000,,2014-04-21 04:13:00,
2014-04-20 20:21:00,47.0,27.0,-100.00,North,359,5.0,10.0,45,0.00,,,0.00,167.000000,,2014-04-21 04:21:00,
2014-04-20 20:54:00,47.0,27.0,-100.00,North,359,5.0,10.0,45,0.00,,,0.00,167.000000,,2014-04-21 04:54:00,
2014-04-20 21:02:00,47.0,27.0,-100.00,North,359,5.0,10.0,45,0.00,,,0.00,167.000000,,2014-04-21 05:02:00,
2014-04-20 21:13:00,47.0,27.0,-100.00,North,359,5.0,10.0,45,0.00,,,0.00,167.000000,,2014-04-21 05:13:00,
2014-04-20 21:53:00,44.0,27.0,-100.00,North,4,5.0,7.0,50,0.00,,,0.00,72.000000,,2014-04-21 05:53:00,
2014-04-20 22:01:00,44.0,27.0,-100.00,North,4,5.0,7.0,50,0.00,,,0.00,72.000000,,2014-04-21 06:01:00,